Time;durP1;ratioP1;P1;durP2;ratioP2;P2;SDS_P1;SDS_P2;PMS_P1;PMS_P2;Temp;Humidity;BMP_temperature;BMP_pressure;BME280_temperature;BME280_humidity;BME280_pressure;Samples;Min_cycle;Max_cycle;Signal;HPM_P1;HPM_P2
2022/05/02 00:00:39;;;;;;;9.68;7.53;;;5.50;99.90;;;;;;5125022;28;20051;-64
2022/05/02 00:03:05;;;;;;;9.05;7.80;;;5.50;99.90;;;;;;5123612;28;20047;-64
2022/05/02 00:05:31;;;;;;;11.20;7.97;;;5.30;99.90;;;;;;5119512;28;20099;-64
2022/05/02 00:07:57;;;;;;;10.32;7.70;;;5.30;99.90;;;;;;5124410;28;20048;-64
2022/05/02 00:10:22;;;;;;;10.52;7.90;;;5.30;99.90;;;;;;5120919;28;20040;-64
2022/05/02 00:12:48;;;;;;;8.43;7.35;;;5.40;99.90;;;;;;5120517;28;20071;-64
2022/05/02 00:15:14;;;;;;;10.48;7.47;;;5.30;99.90;;;;;;5120463;28;20043;-64
2022/05/02 00:17:58;;;;;;;10.57;8.70;;;5.40;99.90;;;;;;5123086;28;20075;-64
2022/05/02 00:20:25;;;;;;;9.65;7.53;;;5.30;99.90;;;;;;5124604;28;20036;-64
2022/05/02 00:22:51;;;;;;;11.15;7.95;;;5.20;99.90;;;;;;5141483;27;20051;-64
2022/05/02 00:25:17;;;;;;;10.73;7.38;;;5.10;99.90;;;;;;5121938;28;20136;-64
2022/05/02 00:27:43;;;;;;;10.23;7.78;;;5.20;99.90;;;;;;5123108;28;20046;-64
2022/05/02 00:30:10;;;;;;;11.85;9.30;;;5.00;99.90;;;;;;5121457;28;20483;-64
2022/05/02 00:32:36;;;;;;;12.70;9.10;;;5.10;99.90;;;;;;5123947;28;20051;-64
2022/05/02 00:35:04;;;;;;;10.10;8.13;;;5.20;99.90;;;;;;5113493;28;20044;-64
2022/05/02 00:37:29;;;;;;;9.68;8.15;;;5.20;99.90;;;;;;5116526;28;20152;-64
2022/05/02 00:39:56;;;;;;;12.23;8.88;;;5.20;99.90;;;;;;5122864;28;20110;-64
2022/05/02 00:42:22;;;;;;;11.77;8.27;;;5.20;99.90;;;;;;5124547;28;20044;-64
2022/05/02 00:44:48;;;;;;;9.52;8.48;;;5.30;99.90;;;;;;5106933;28;20097;-64
2022/05/02 00:47:18;;;;;;;9.57;8.30;;;5.30;99.90;;;;;;5122904;28;20039;-64
2022/05/02 00:49:44;;;;;;;13.98;9.82;;;5.20;99.90;;;;;;5119775;28;20391;-64
2022/05/02 00:52:10;;;;;;;11.43;8.32;;;5.00;99.90;;;;;;5123405;28;20080;-64
2022/05/02 00:54:37;;;;;;;12.55;9.90;;;5.00;99.90;;;;;;5097216;28;20068;-65
2022/05/02 00:57:07;;;;;;;11.70;9.02;;;5.00;99.90;;;;;;5124176;28;20119;-64
2022/05/02 00:59:37;;;;;;;10.73;8.38;;;5.00;99.90;;;;;;5123496;28;20128;-64
2022/05/02 01:02:04;;;;;;;73.00;13.25;;;5.00;99.90;;;;;;5125374;28;20044;-64
2022/05/02 01:04:30;;;;;;;30.08;10.38;;;4.90;99.90;;;;;;5123468;28;20047;-64
2022/05/02 01:07:19;;;;;;;16.38;9.60;;;4.90;99.90;;;;;;5117683;28;20055;-64
2022/05/02 01:09:50;;;;;;;16.45;10.30;;;4.80;99.90;;;;;;5123166;28;20035;-64
2022/05/02 01:12:24;;;;;;;12.80;9.45;;;4.80;99.90;;;;;;5122323;28;20056;-64
2022/05/02 01:14:53;;;;;;;12.35;9.25;;;4.90;99.90;;;;;;5118338;28;20051;-64
2022/05/02 01:17:19;;;;;;;11.98;10.32;;;4.80;99.90;;;;;;5121601;28;20099;-64
2022/05/02 01:19:45;;;;;;;12.43;9.80;;;4.80;99.90;;;;;;5122100;28;20071;-64
2022/05/02 01:22:11;;;;;;;22.88;10.40;;;4.80;99.90;;;;;;5123369;28;20043;-64
2022/05/02 01:24:45;;;;;;;12.35;9.73;;;4.80;99.90;;;;;;5122606;28;20043;-64
2022/05/02 01:27:12;;;;;;;11.50;9.13;;;4.80;99.90;;;;;;5118435;28;20519;-64
2022/05/02 01:29:40;;;;;;;11.30;8.73;;;4.90;99.90;;;;;;5124955;28;20050;-64
2022/05/02 01:32:08;;;;;;;14.82;8.40;;;4.60;99.90;;;;;;5124712;28;20081;-64
2022/05/02 01:34:34;;;;;;;14.50;9.32;;;4.70;99.90;;;;;;5122873;28;20055;-64
2022/05/02 01:37:01;;;;;;;13.27;8.07;;;4.60;99.90;;;;;;5122973;28;20480;-64
2022/05/02 01:39:27;;;;;;;15.07;8.95;;;4.30;99.90;;;;;;5123160;28;20047;-64
2022/05/02 01:41:52;;;;;;;11.85;9.48;;;4.20;99.90;;;;;;5123031;28;20054;-64
2022/05/02 01:44:18;;;;;;;9.80;8.80;;;4.20;99.90;;;;;;5123293;28;20073;-64
2022/05/02 01:46:44;;;;;;;12.15;8.95;;;4.10;99.90;;;;;;5123804;28;20130;-64
2022/05/02 01:49:10;;;;;;;13.23;10.65;;;4.10;99.90;;;;;;5125439;28;20067;-64
2022/05/02 01:51:35;;;;;;;12.43;10.15;;;4.10;99.90;;;;;;5123883;28;20052;-64
2022/05/02 01:54:01;;;;;;;12.82;10.32;;;4.30;99.90;;;;;;5124314;28;20111;-64
2022/05/02 01:56:27;;;;;;;11.82;9.95;;;4.20;99.90;;;;;;5069103;28;20518;-64
2022/05/02 01:58:53;;;;;;;11.23;9.32;;;4.20;99.90;;;;;;5091668;28;20073;-64
2022/05/02 02:01:19;;;;;;;11.98;10.30;;;4.00;99.90;;;;;;5124043;28;20075;-64
2022/05/02 02:03:45;;;;;;;13.57;10.60;;;4.10;99.90;;;;;;5117005;28;20067;-64
2022/05/02 02:06:10;;;;;;;12.35;9.70;;;4.20;99.90;;;;;;5122156;28;20039;-64
2022/05/02 02:08:37;;;;;;;12.88;10.85;;;4.10;99.90;;;;;;5113672;28;20072;-64
2022/05/02 02:11:05;;;;;;;13.63;10.35;;;3.90;99.90;;;;;;5114777;28;20245;-64
2022/05/02 02:13:31;;;;;;;14.30;10.85;;;3.70;99.90;;;;;;5123894;28;20044;-64
2022/05/02 02:15:58;;;;;;;11.43;9.85;;;3.60;99.90;;;;;;5124336;28;20075;-64
2022/05/02 02:18:24;;;;;;;11.38;9.15;;;3.70;99.90;;;;;;5141702;27;20086;-64
2022/05/02 02:20:52;;;;;;;11.27;9.60;;;3.70;99.90;;;;;;5120740;28;20040;-64
2022/05/02 02:23:19;;;;;;;12.30;9.48;;;3.60;99.90;;;;;;5123707;28;20048;-64
2022/05/02 02:25:45;;;;;;;11.90;9.50;;;3.40;99.90;;;;;;5141567;27;20052;-64
2022/05/02 02:28:13;;;;;;;13.85;9.85;;;3.40;99.90;;;;;;5127313;28;20031;-64
2022/05/02 02:30:38;;;;;;;14.18;11.73;;;3.30;99.90;;;;;;5127304;28;20048;-64
2022/05/02 02:33:04;;;;;;;14.88;12.90;;;3.30;99.90;;;;;;5126187;28;20039;-64
2022/05/02 02:35:31;;;;;;;15.48;12.13;;;3.30;99.90;;;;;;5108882;28;20069;-64
2022/05/02 02:37:56;;;;;;;10.38;8.88;;;3.30;99.90;;;;;;5127319;28;20039;-64
2022/05/02 02:40:22;;;;;;;6.00;5.40;;;3.20;99.90;;;;;;5126020;28;20053;-64
2022/05/02 02:42:49;;;;;;;6.82;6.13;;;3.10;99.90;;;;;;5108912;28;20047;-64
2022/05/02 02:45:15;;;;;;;9.05;7.57;;;3.20;99.90;;;;;;5126390;28;20031;-64
2022/05/02 02:47:41;;;;;;;10.65;8.88;;;3.20;99.90;;;;;;5126972;28;20055;-64
2022/05/02 02:50:08;;;;;;;10.73;9.55;;;3.50;99.90;;;;;;5127121;28;20288;-64
2022/05/02 02:52:34;;;;;;;13.13;10.48;;;3.40;99.90;;;;;;5110017;28;20044;-64
2022/05/02 02:54:59;;;;;;;15.90;11.57;;;3.40;99.90;;;;;;5109883;28;20091;-64
2022/05/02 02:57:25;;;;;;;24.40;11.98;;;3.50;99.90;;;;;;5124611;28;20076;-64
2022/05/02 02:59:51;;;;;;;12.52;8.45;;;3.50;99.90;;;;;;5126638;28;20066;-64
2022/05/02 03:02:16;;;;;;;14.00;10.88;;;3.40;99.90;;;;;;5125455;28;20156;-64
2022/05/02 03:07:28;;;;;;;11.60;8.80;;;3.20;99.90;;;;;;5121986;28;20063;-64
2022/05/02 03:09:54;;;;;;;9.82;8.82;;;3.30;99.90;;;;;;5106449;28;20051;-64
2022/05/02 03:12:20;;;;;;;10.90;8.68;;;3.40;99.90;;;;;;5109286;28;20116;-64
2022/05/02 03:14:46;;;;;;;15.85;13.50;;;3.50;99.90;;;;;;5127609;28;20465;-64
2022/05/02 03:17:12;;;;;;;20.48;18.27;;;3.30;99.90;;;;;;5125951;28;20058;-64
2022/05/02 03:19:38;;;;;;;19.80;15.35;;;3.10;99.90;;;;;;5127098;28;20490;-64
2022/05/02 03:22:05;;;;;;;15.57;13.02;;;2.90;99.90;;;;;;5127836;28;20035;-64
2022/05/02 03:24:31;;;;;;;10.52;4.55;;;3.00;99.90;;;;;;5125615;28;20036;-64
2022/05/02 03:26:57;;;;;;;22.48;4.32;;;2.80;99.90;;;;;;5124537;28;20069;-64
2022/05/02 03:29:22;;;;;;;49.78;5.78;;;2.80;99.90;;;;;;5121701;28;20412;-64
2022/05/02 03:31:48;;;;;;;5.65;5.07;;;2.90;99.90;;;;;;5104625;28;20056;-64
2022/05/02 03:34:14;;;;;;;4.30;3.90;;;3.00;99.90;;;;;;5122056;28;20104;-64
2022/05/02 03:36:40;;;;;;;6.18;5.57;;;3.00;99.90;;;;;;5105575;28;20111;-64
2022/05/02 03:39:06;;;;;;;6.80;6.20;;;3.00;99.90;;;;;;5107093;28;20052;-64
2022/05/02 03:41:32;;;;;;;50.22;5.03;;;3.00;99.90;;;;;;5105941;28;20048;-64
2022/05/02 03:43:58;;;;;;;7.22;6.53;;;2.90;99.90;;;;;;5105131;28;20046;-64
2022/05/02 03:46:24;;;;;;;4.95;3.90;;;2.90;99.90;;;;;;5125331;28;20036;-64
2022/05/02 03:48:50;;;;;;;6.63;5.13;;;3.00;99.90;;;;;;5124726;28;20069;-64
2022/05/02 03:51:16;;;;;;;8.30;6.68;;;3.00;99.90;;;;;;5126352;28;20069;-64
2022/05/02 03:53:42;;;;;;;21.80;7.43;;;3.00;99.90;;;;;;5108630;28;20039;-64
2022/05/02 03:56:08;;;;;;;12.02;5.45;;;3.10;99.90;;;;;;5106847;28;20503;-64
2022/05/02 03:58:33;;;;;;;4.43;4.03;;;3.00;99.90;;;;;;5116052;28;20083;-65
2022/05/02 04:00:59;;;;;;;3.85;3.45;;;3.00;99.90;;;;;;5105151;28;20111;-64
2022/05/02 04:03:25;;;;;;;7.47;6.75;;;3.00;99.90;;;;;;5104197;28;20071;-64
2022/05/02 04:05:51;;;;;;;15.23;13.68;;;3.00;99.90;;;;;;5104505;28;20044;-64
2022/05/02 04:08:16;;;;;;;27.63;24.63;;;3.00;99.90;;;;;;5109618;28;20052;-64
2022/05/02 04:10:42;;;;;;;22.50;18.92;;;2.70;99.90;;;;;;5105218;28;20046;-64
2022/05/02 04:13:09;;;;;;;16.45;12.75;;;2.60;99.90;;;;;;5088328;28;20067;-65
2022/05/02 04:15:35;;;;;;;31.55;8.00;;;2.50;99.90;;;;;;5087903;28;20044;-65
2022/05/02 04:18:01;;;;;;;76.15;6.32;;;2.40;99.90;;;;;;5103235;28;20043;-65
2022/05/02 04:20:26;;;;;;;31.90;5.00;;;2.40;99.90;;;;;;5104390;28;20055;-65
2022/05/02 04:22:52;;;;;;;6.63;5.53;;;2.50;99.90;;;;;;5104411;28;20047;-64
2022/05/02 04:25:18;;;;;;;4.95;4.35;;;2.50;99.90;;;;;;5103700;28;20062;-64
2022/05/02 04:27:44;;;;;;;6.22;5.63;;;2.60;99.90;;;;;;5111096;28;20032;-64
2022/05/02 04:30:11;;;;;;;7.07;5.47;;;2.60;99.90;;;;;;5120346;28;20077;-64
2022/05/02 04:32:37;;;;;;;4.90;4.35;;;2.80;99.90;;;;;;5122421;28;20082;-64
2022/05/02 04:35:05;;;;;;;10.50;6.60;;;2.80;99.90;;;;;;5120951;28;20052;-64
2022/05/02 04:37:31;;;;;;;5.65;4.70;;;2.80;99.90;;;;;;5120067;28;20099;-64
2022/05/02 04:39:56;;;;;;;7.50;6.60;;;2.90;99.90;;;;;;5119811;28;20040;-64
2022/05/02 04:42:23;;;;;;;10.07;7.97;;;2.80;99.90;;;;;;5122363;28;20043;-64
2022/05/02 04:44:49;;;;;;;14.35;12.32;;;3.00;99.90;;;;;;5123692;28;20050;-64
2022/05/02 04:47:15;;;;;;;12.13;10.82;;;3.20;99.90;;;;;;5124373;28;20099;-64
2022/05/02 04:49:41;;;;;;;15.63;13.73;;;3.10;99.90;;;;;;5123010;28;20043;-64
2022/05/02 04:52:07;;;;;;;16.23;13.95;;;3.30;99.90;;;;;;5106332;28;20044;-64
2022/05/02 04:54:33;;;;;;;15.48;13.32;;;3.40;99.90;;;;;;5121932;28;20089;-64
2022/05/02 04:56:58;;;;;;;18.98;15.32;;;3.50;99.90;;;;;;5095536;28;20051;-64
2022/05/02 04:59:24;;;;;;;21.25;17.38;;;3.50;99.90;;;;;;5125333;28;20051;-64
2022/05/02 05:01:50;;;;;;;22.05;16.85;;;3.60;99.90;;;;;;5107253;28;20059;-64
2022/05/02 05:04:16;;;;;;;23.10;16.27;;;3.80;99.90;;;;;;5106748;28;20058;-64
2022/05/02 05:06:41;;;;;;;22.40;17.05;;;4.00;99.90;;;;;;5106768;28;20039;-65
2022/05/02 05:09:07;;;;;;;24.70;17.45;;;4.10;99.90;;;;;;5106708;28;20231;-64
2022/05/02 05:12:04;;;;;;;23.02;17.58;;;4.30;99.90;;;;;;5105748;28;20087;-64
2022/05/02 05:17:50;;;;;;;22.40;16.85;;;4.60;99.90;;;;;;5124657;28;20047;-65
2022/05/02 05:20:54;;;;;;;22.52;16.60;;;4.70;99.90;;;;;;5089297;28;20058;-64
2022/05/02 05:23:40;;;;;;;20.60;16.92;;;4.80;99.90;;;;;;5124063;28;20071;-64
2022/05/02 05:26:11;;;;;;;20.25;17.08;;;4.80;99.90;;;;;;5103114;28;20056;-64
2022/05/02 05:29:04;;;;;;;24.05;17.45;;;5.00;99.90;;;;;;5104225;28;20039;-64
2022/05/02 05:31:40;;;;;;;27.30;18.98;;;5.10;99.90;;;;;;5089704;28;20075;-65
2022/05/02 05:34:16;;;;;;;23.75;17.55;;;5.10;99.90;;;;;;5093137;28;20047;-65
2022/05/02 05:37:23;;;;;;;26.42;18.88;;;5.20;99.90;;;;;;5087162;28;20062;-65
2022/05/02 05:40:27;;;;;;;22.23;17.88;;;5.30;99.90;;;;;;5073588;28;20111;-66
2022/05/02 05:43:11;;;;;;;22.55;17.63;;;5.40;99.90;;;;;;5097439;27;20050;-64
2022/05/02 05:45:43;;;;;;;23.40;18.25;;;5.50;99.90;;;;;;5122791;27;20043;-65
2022/05/02 05:48:15;;;;;;;24.45;17.75;;;5.60;99.90;;;;;;5072611;28;20055;-65
2022/05/02 05:50:48;;;;;;;22.50;18.30;;;5.60;99.90;;;;;;5101226;28;20039;-65
2022/05/02 05:53:35;;;;;;;22.35;17.85;;;5.70;99.90;;;;;;5093922;28;20047;-65
2022/05/02 05:56:19;;;;;;;25.00;18.25;;;5.90;99.90;;;;;;5097638;28;20047;-64
2022/05/02 05:58:57;;;;;;;21.42;18.13;;;5.90;99.90;;;;;;5108572;28;20057;-65
2022/05/02 06:01:56;;;;;;;25.05;18.73;;;6.10;99.90;;;;;;5113405;28;20112;-65
2022/05/02 06:04:27;;;;;;;23.80;17.98;;;6.20;99.90;;;;;;5099971;27;20043;-65
2022/05/02 06:06:54;;;;;;;25.60;18.90;;;6.20;99.90;;;;;;5105100;28;20108;-65
2022/05/02 06:09:21;;;;;;;23.10;19.05;;;6.40;99.90;;;;;;5090317;28;20465;-64
2022/05/02 06:11:49;;;;;;;20.85;17.98;;;6.40;99.90;;;;;;5099002;28;20057;-64
2022/05/02 06:14:15;;;;;;;24.73;19.17;;;6.40;99.90;;;;;;5085713;28;20052;-66
2022/05/02 06:19:31;;;;;;;26.77;19.30;;;6.60;99.90;;;;;;5078462;28;20096;-65
2022/05/02 06:22:01;;;;;;;23.48;18.15;;;6.70;99.90;;;;;;5101842;28;20211;-66
2022/05/02 06:24:31;;;;;;;25.65;19.05;;;6.80;99.90;;;;;;5104263;27;20087;-67
2022/05/02 06:26:59;;;;;;;28.08;21.10;;;6.70;99.90;;;;;;5113356;28;20044;-65
2022/05/02 06:29:25;;;;;;;25.23;20.33;;;6.90;99.90;;;;;;5089607;28;20304;-65
2022/05/02 06:31:54;;;;;;;27.13;20.25;;;6.90;99.90;;;;;;5099657;28;20043;-65
2022/05/02 06:34:26;;;;;;;25.15;19.92;;;7.10;99.90;;;;;;5090439;28;20047;-65
2022/05/02 06:37:21;;;;;;;26.50;20.38;;;7.20;99.90;;;;;;5096827;28;20043;-64
2022/05/02 06:40:10;;;;;;;24.52;19.40;;;7.30;99.90;;;;;;5080350;28;20062;-67
2022/05/02 06:43:00;;;;;;;25.33;19.33;;;7.50;99.90;;;;;;5102457;28;20294;-65
2022/05/02 06:45:28;;;;;;;23.25;17.80;;;7.60;99.90;;;;;;5077868;28;20232;-66
2022/05/02 06:48:01;;;;;;;25.85;19.38;;;7.70;99.90;;;;;;5096550;28;20048;-65
2022/05/02 06:50:31;;;;;;;21.20;18.52;;;7.80;99.90;;;;;;5058622;28;20059;-66
2022/05/02 06:53:11;;;;;;;;;;;7.80;99.90;;;;;;5081263;28;20097;-66
2022/05/02 06:55:42;;;;;;;20.80;17.08;;;8.00;99.90;;;;;;5108538;27;20143;-65
2022/05/02 06:58:28;;;;;;;22.73;17.63;;;8.10;99.90;;;;;;5102117;28;20055;-65
2022/05/02 07:01:05;;;;;;;21.92;17.48;;;8.20;99.90;;;;;;5089612;28;20100;-66
2022/05/02 07:03:56;;;;;;;22.80;16.83;;;8.30;99.90;;;;;;5099896;28;20089;-66
2022/05/02 07:06:46;;;;;;;23.65;17.75;;;8.40;99.90;;;;;;5101706;27;20043;-65
2022/05/02 07:09:27;;;;;;;20.17;15.85;;;8.50;99.90;;;;;;5115854;27;20051;-65
2022/05/02 07:12:01;;;;;;;25.45;16.88;;;8.70;99.90;;;;;;5087771;28;20056;-65
2022/05/02 07:15:01;;;;;;;18.92;16.30;;;8.90;99.90;;;;;;5094687;28;20169;-65
2022/05/02 07:17:42;;;;;;;20.52;15.45;;;8.90;99.90;;;;;;5072890;28;20151;-65
2022/05/02 07:20:32;;;;;;;20.13;15.55;;;9.00;99.90;;;;;;5094182;28;20062;-65
2022/05/02 07:23:29;;;;;;;18.77;15.68;;;9.00;99.90;;;;;;5100886;28;20058;-65
2022/05/02 07:26:06;;;;;;;20.48;16.60;;;9.00;99.90;;;;;;5085830;28;20048;-65
2022/05/02 07:28:48;;;;;;;20.52;16.58;;;9.10;99.90;;;;;;5106690;28;20043;-65
2022/05/02 07:31:18;;;;;;;21.25;17.00;;;9.10;99.90;;;;;;5107275;28;20078;-66
2022/05/02 07:33:47;;;;;;;17.80;15.60;;;9.30;99.90;;;;;;5097988;28;20362;-62
2022/05/02 07:36:16;;;;;;;16.30;14.52;;;9.50;99.90;;;;;;5102865;28;20054;-62
2022/05/02 07:38:45;;;;;;;19.17;15.37;;;9.30;99.90;;;;;;5118355;28;20040;-62
2022/05/02 07:41:22;;;;;;;23.83;15.65;;;9.30;99.90;;;;;;5105353;28;20101;-62
2022/05/02 07:43:50;;;;;;;16.45;13.93;;;9.40;99.90;;;;;;5126753;27;20044;-62
2022/05/02 07:46:21;;;;;;;20.90;15.10;;;9.50;99.90;;;;;;5101862;28;20039;-62
2022/05/02 07:48:50;;;;;;;20.55;14.82;;;9.50;99.90;;;;;;5093640;28;20051;-62
2022/05/02 07:51:16;;;;;;;21.13;14.65;;;9.50;99.90;;;;;;5090543;28;20073;-62
2022/05/02 07:53:43;;;;;;;22.10;15.43;;;9.50;99.90;;;;;;5086751;28;20370;-62
2022/05/02 07:56:10;;;;;;;17.90;13.50;;;9.70;99.90;;;;;;5114956;28;20043;-62
2022/05/02 07:58:44;;;;;;;18.92;14.20;;;9.90;99.90;;;;;;5071943;28;20059;-62
2022/05/02 08:01:10;;;;;;;19.60;13.77;;;9.70;99.90;;;;;;5109773;28;20044;-62
2022/05/02 08:03:36;;;;;;;17.45;13.63;;;9.80;99.90;;;;;;5091460;28;20066;-62
2022/05/02 08:06:40;;;;;;;14.55;12.25;;;10.00;99.90;;;;;;5114956;28;20088;-62
2022/05/02 08:09:33;;;;;;;13.27;10.52;;;10.00;99.90;;;;;;5072278;28;20080;-62
2022/05/02 08:12:19;;;;;;;14.63;11.90;;;10.20;99.90;;;;;;5095535;28;20048;-62
2022/05/02 08:15:05;;;;;;;19.80;13.05;;;10.30;99.90;;;;;;5096321;28;20055;-62
2022/05/02 08:17:43;;;;;;;13.30;10.68;;;10.50;99.90;;;;;;5093287;28;20100;-62
2022/05/02 08:20:30;;;;;;;14.70;11.18;;;10.50;99.90;;;;;;5063616;28;20081;-61
2022/05/02 08:29:26;;;;;;;13.93;12.18;;;10.60;99.90;;;;;;5081764;28;20055;-62
2022/05/02 08:32:03;;;;;;;17.10;12.55;;;10.60;99.90;;;;;;5112727;28;20058;-62
2022/05/02 08:34:41;;;;;;;15.38;11.57;;;10.80;99.90;;;;;;5105556;27;20422;-62
2022/05/02 08:37:34;;;;;;;16.17;11.63;;;10.90;99.90;;;;;;5108582;27;20062;-62
2022/05/02 08:40:25;;;;;;;13.70;11.38;;;11.20;99.90;;;;;;5081964;28;20043;-62
2022/05/02 08:43:09;;;;;;;12.63;10.75;;;11.40;99.90;;;;;;5058143;28;20518;-62
2022/05/02 08:45:41;;;;;;;12.82;10.43;;;11.50;99.90;;;;;;5099431;28;20044;-62
2022/05/02 08:48:29;;;;;;;14.05;11.48;;;11.60;99.90;;;;;;5092001;27;20051;-62
2022/05/02 08:51:19;;;;;;;14.25;10.23;;;11.60;99.90;;;;;;5110846;27;20063;-62
2022/05/02 08:54:03;;;;;;;;;;;11.60;99.90;;;;;;5095432;28;20060;-62
2022/05/02 08:56:45;;;;;;;13.73;10.07;;;11.60;99.90;;;;;;5116221;28;20398;-62
2022/05/02 08:59:36;;;;;;;13.15;10.50;;;11.60;99.90;;;;;;5088316;28;20055;-62
2022/05/02 09:02:49;;;;;;;15.70;11.73;;;11.70;99.90;;;;;;5110362;28;20070;-62
2022/05/02 09:05:40;;;;;;;15.27;10.45;;;11.80;99.90;;;;;;5055151;28;20743;-62
2022/05/02 09:08:31;;;;;;;14.18;9.80;;;11.90;99.90;;;;;;5086713;28;20055;-62
2022/05/02 09:11:12;;;;;;;14.52;9.73;;;12.10;99.90;;;;;;5069348;28;20083;-62
2022/05/02 09:13:58;;;;;;;14.63;9.30;;;12.10;99.90;;;;;;5080432;28;20076;-62
2022/05/02 09:17:09;;;;;;;13.73;8.93;;;12.10;99.90;;;;;;5088903;28;20058;-62
2022/05/02 09:20:24;;;;;;;15.15;10.70;;;12.10;99.90;;;;;;5066600;28;20074;-62
2022/05/02 09:23:08;;;;;;;14.18;10.25;;;12.10;99.90;;;;;;5045371;28;20063;-62
2022/05/02 09:25:57;;;;;;;14.20;8.88;;;12.20;99.90;;;;;;5070353;28;20122;-62
2022/05/02 09:28:29;;;;;;;10.70;8.70;;;12.40;99.90;;;;;;5013410;28;20440;-62
2022/05/02 09:31:28;;;;;;;9.88;8.60;;;12.40;99.90;;;;;;5041067;28;20063;-62
2022/05/02 09:34:09;;;;;;;14.33;9.57;;;12.60;99.90;;;;;;5035021;28;20088;-62
2022/05/02 09:36:54;;;;;;;11.50;9.77;;;12.80;99.90;;;;;;5038352;28;20691;-62
2022/05/02 09:39:30;;;;;;;10.27;8.35;;;12.90;99.90;;;;;;5044671;28;20141;-62
2022/05/02 09:42:24;;;;;;;18.80;8.43;;;13.00;99.90;;;;;;5066930;28;20135;-62
2022/05/02 09:51:47;;;;;;;12.40;8.45;;;13.10;99.90;;;;;;5039708;28;20072;-62
2022/05/02 09:57:34;;;;;;;10.40;7.55;;;13.20;99.90;;;;;;5074789;28;20138;-62
2022/05/02 10:02:51;;;;;;;12.10;9.20;;;13.50;99.90;;;;;;5113532;28;20538;-62
2022/05/02 10:05:36;;;;;;;13.10;9.02;;;13.70;99.90;;;;;;5077198;28;20643;-62
2022/05/02 10:08:19;;;;;;;10.00;8.60;;;13.80;99.90;;;;;;5095066;28;20043;-62
2022/05/02 10:10:56;;;;;;;10.75;8.85;;;14.00;99.90;;;;;;5098979;28;20047;-63
2022/05/02 10:13:53;;;;;;;10.27;7.95;;;14.00;99.90;;;;;;5133839;28;20098;-62
2022/05/02 10:16:31;;;;;;;11.05;8.90;;;14.10;99.90;;;;;;5082843;28;20048;-62
2022/05/02 10:18:59;;;;;;;11.90;8.20;;;13.90;99.90;;;;;;5110802;28;20043;-62
2022/05/02 10:22:04;;;;;;;11.70;8.30;;;13.90;99.90;;;;;;5103073;28;20492;-62
2022/05/02 10:24:44;;;;;;;8.55;7.22;;;14.00;99.90;;;;;;5094121;28;20382;-63
2022/05/02 10:27:42;;;;;;;11.80;8.13;;;14.00;99.90;;;;;;5078596;28;20166;-62
2022/05/02 10:30:12;;;;;;;8.80;7.68;;;14.10;99.90;;;;;;5087245;28;20239;-62
2022/05/02 10:32:43;;;;;;;10.90;7.35;;;14.20;99.90;;;;;;5102360;28;20044;-62
2022/05/02 10:35:18;;;;;;;9.98;6.85;;;14.20;99.90;;;;;;5103083;28;20111;-63
2022/05/02 10:38:04;;;;;;;11.00;8.80;;;14.40;99.90;;;;;;5096993;28;20070;-62
2022/05/02 10:40:33;;;;;;;9.75;7.68;;;14.50;99.90;;;;;;5095209;28;20590;-62
2022/05/02 10:43:03;;;;;;;8.73;6.45;;;14.60;99.90;;;;;;5118480;28;20071;-63
2022/05/02 10:45:31;;;;;;;;;;;14.70;99.90;;;;;;5073471;28;20051;-62
2022/05/02 10:48:11;;;;;;;10.20;7.80;;;14.50;99.90;;;;;;5124919;27;19923;-63
2022/05/02 10:50:37;;;;;;;9.15;8.15;;;14.60;99.90;;;;;;5091290;28;20048;-62
2022/05/02 10:53:03;;;;;;;10.55;7.60;;;14.50;99.90;;;;;;5115657;28;20036;-62
2022/05/02 10:55:37;;;;;;;9.32;7.43;;;14.40;99.90;;;;;;5091890;28;20115;-61
2022/05/02 10:58:10;;;;;;;8.30;7.40;;;14.60;99.90;;;;;;5116048;28;20043;-62
2022/05/02 11:00:56;;;;;;;10.30;8.43;;;14.80;99.90;;;;;;5102122;28;20044;-62
2022/05/02 11:03:46;;;;;;;10.15;8.05;;;14.90;99.90;;;;;;5111363;28;20051;-62
2022/05/02 11:06:11;;;;;;;9.90;8.90;;;15.00;99.90;;;;;;5114831;27;20059;-62
2022/05/02 11:08:47;;;;;;;12.20;8.63;;;15.00;99.90;;;;;;5122847;27;20044;-62
2022/05/02 11:11:25;;;;;;;9.43;8.35;;;15.10;99.90;;;;;;5121911;27;20047;-62
2022/05/02 11:14:06;;;;;;;9.32;7.60;;;15.10;99.90;;;;;;5089827;28;20039;-62
2022/05/02 11:16:46;;;;;;;10.57;8.25;;;15.00;99.90;;;;;;5101880;27;20557;-62
2022/05/02 11:22:41;;;;;;;12.40;7.85;;;14.90;99.90;;;;;;4987196;28;20069;-62
2022/05/02 11:25:27;;;;;;;9.20;7.90;;;14.90;99.90;;;;;;5005472;28;20141;-62
2022/05/02 11:28:27;;;;;;;9.98;7.60;;;15.10;99.90;;;;;;4994232;28;20061;-62
2022/05/02 11:31:06;;;;;;;10.63;7.20;;;15.20;99.90;;;;;;5004112;28;20057;-62
2022/05/02 11:33:42;;;;;;;348.52;32.00;;;15.20;99.90;;;;;;4998629;28;20054;-62
2022/05/02 11:36:12;;;;;;;28.38;9.13;;;15.30;99.90;;;;;;4991074;28;20060;-62
2022/05/02 11:38:56;;;;;;;10.38;8.00;;;15.30;99.90;;;;;;5006086;28;20365;-62
2022/05/02 11:41:23;;;;;;;10.15;8.10;;;15.30;99.90;;;;;;5003348;28;20109;-62
2022/05/02 11:44:00;;;;;;;9.88;6.57;;;15.40;99.90;;;;;;5006633;28;20053;-62
2022/05/02 11:46:26;;;;;;;8.85;6.50;;;15.30;99.90;;;;;;5018638;28;20477;-62
2022/05/02 11:48:57;;;;;;;8.65;7.30;;;15.40;99.70;;;;;;5024737;28;20046;-62
2022/05/02 11:51:47;;;;;;;15.70;7.22;;;15.30;99.90;;;;;;5017760;28;20054;-62
2022/05/02 11:54:34;;;;;;;10.05;7.10;;;15.40;99.90;;;;;;5013234;28;20080;-62
2022/05/02 11:57:17;;;;;;;20.63;7.70;;;15.50;99.90;;;;;;5091370;27;20051;-62
2022/05/02 11:59:53;;;;;;;8.93;8.00;;;15.60;99.90;;;;;;5116262;27;20085;-62
2022/05/02 12:02:38;;;;;;;10.43;8.07;;;15.70;99.90;;;;;;5109369;27;20050;-62
2022/05/02 12:05:13;;;;;;;9.68;7.22;;;15.70;99.90;;;;;;5130492;27;20111;-63
2022/05/02 12:07:43;;;;;;;8.60;6.95;;;15.80;99.90;;;;;;5121082;27;20063;-62
2022/05/02 12:10:09;;;;;;;8.98;6.65;;;15.80;99.90;;;;;;5121619;27;20082;-63
2022/05/02 12:12:36;;;;;;;10.85;7.35;;;15.90;99.90;;;;;;5092498;28;20055;-62
2022/05/02 12:15:07;;;;;;;10.50;7.05;;;15.90;99.90;;;;;;5119349;27;20043;-63
2022/05/02 12:17:50;;;;;;;8.25;6.53;;;16.00;99.90;;;;;;5095391;28;20201;-62
2022/05/02 12:20:31;;;;;;;8.63;6.72;;;16.10;99.90;;;;;;5105857;27;20052;-62
2022/05/02 12:23:08;;;;;;;9.75;6.65;;;16.40;99.90;;;;;;5095959;28;20154;-62
2022/05/02 12:25:34;;;;;;;7.78;6.43;;;16.50;99.90;;;;;;5134760;27;20071;-62
2022/05/02 12:28:03;;;;;;;8.23;6.32;;;16.60;99.90;;;;;;5096325;28;20104;-62
2022/05/02 12:30:30;;;;;;;6.97;6.25;;;16.60;99.90;;;;;;5112604;27;20039;-62
2022/05/02 12:33:02;;;;;;;6.75;6.03;;;16.80;99.90;;;;;;5097830;28;20055;-62
2022/05/02 12:35:40;;;;;;;8.70;5.63;;;16.80;96.50;;;;;;5115475;28;20059;-62
2022/05/02 12:38:24;;;;;;;8.20;6.60;;;16.90;94.50;;;;;;5095886;27;20048;-62
2022/05/02 12:40:52;;;;;;;7.47;5.90;;;17.10;98.40;;;;;;5119289;27;20145;-62
2022/05/02 12:43:40;;;;;;;9.00;6.20;;;17.20;99.40;;;;;;5083239;28;20043;-62
2022/05/02 12:46:07;;;;;;;7.47;5.63;;;17.20;93.10;;;;;;5138968;27;20051;-62
2022/05/02 12:48:41;;;;;;;8.15;5.18;;;17.40;87.00;;;;;;5098137;27;20063;-62
2022/05/02 12:51:15;;;;;;;7.65;5.47;;;17.40;89.80;;;;;;5138033;27;20094;-62
2022/05/02 12:56:26;;;;;;;6.43;5.30;;;17.40;79.80;;;;;;5120541;27;20130;-63
2022/05/02 13:01:45;;;;;;;9.38;6.18;;;17.40;82.20;;;;;;5114518;27;20042;-63
2022/05/02 13:04:20;;;;;;;12.52;7.43;;;17.50;86.60;;;;;;5116109;27;20065;-62
2022/05/02 13:06:47;;;;;;;8.88;6.53;;;17.80;91.80;;;;;;5110214;28;21558;-63
2022/05/02 13:09:19;;;;;;;9.25;6.88;;;18.20;92.70;;;;;;5099468;28;20047;-62
2022/05/02 13:11:47;;;;;;;9.20;6.60;;;18.30;92.20;;;;;;5121779;28;20074;-63
2022/05/02 13:14:22;;;;;;;7.10;5.78;;;18.50;93.50;;;;;;5129500;28;20158;-62
2022/05/02 13:16:49;;;;;;;9.45;6.20;;;18.60;92.90;;;;;;5107580;28;20051;-62
2022/05/02 13:19:15;;;;;;;8.05;5.55;;;18.60;91.30;;;;;;5107448;28;20546;-62
2022/05/02 13:21:41;;;;;;;5.55;5.05;;;18.30;79.40;;;;;;5115437;28;20059;-63
2022/05/02 13:24:12;;;;;;;6.50;5.90;;;18.60;86.30;;;;;;5102030;28;20071;-62
2022/05/02 13:26:57;;;;;;;8.48;6.60;;;18.70;73.40;;;;;;5118065;28;20047;-62
2022/05/02 13:29:28;;;;;;;9.63;6.90;;;18.60;69.30;;;;;;5107103;28;20077;-62
2022/05/02 13:32:04;;;;;;;8.50;6.60;;;18.70;79.70;;;;;;5119780;28;20053;-62
2022/05/02 13:34:40;;;;;;;7.45;6.38;;;19.10;88.20;;;;;;5094328;28;20076;-62
2022/05/02 13:37:20;;;;;;;9.07;6.97;;;19.50;90.30;;;;;;5103861;28;20494;-63
2022/05/02 13:39:58;;;;;;;;;;;19.80;80.60;;;;;;5097007;28;20112;-63
2022/05/02 13:42:38;;;;;;;8.13;7.32;;;20.10;76.40;;;;;;5107056;28;20371;-63
2022/05/02 13:45:13;;;;;;;9.35;7.20;;;20.80;73.90;;;;;;5109769;28;20047;-63
2022/05/02 13:47:50;;;;;;;6.88;6.18;;;21.60;68.10;;;;;;5120224;28;20115;-64
2022/05/02 13:50:20;;;;;;;9.00;6.63;;;22.70;69.60;;;;;;5102178;28;20063;-63
2022/05/02 13:53:23;;;;;;;6.85;6.15;;;23.70;67.20;;;;;;5087921;28;20379;-63